createdAt,value
2022-08-20T00:04:02.120Z,27.73
2022-08-20T00:09:06.828Z,28.58
2022-08-20T00:14:12.411Z,26.65
2022-08-20T00:19:18.773Z,30.52
2022-08-20T00:24:23.773Z,31.55
2022-08-20T00:29:29.777Z,30.15
2022-08-20T00:34:35.917Z,29.47
2022-08-20T00:39:40.608Z,27.90
2022-08-20T00:44:48.289Z,29.30
2022-08-20T00:49:54.559Z,27.83
2022-08-20T00:55:03.269Z,27.53
2022-08-20T01:00:14.405Z,24.83
2022-08-20T01:05:23.586Z,24.45
2022-08-20T01:10:38.985Z,22.97
2022-08-20T01:15:48.141Z,26.23
2022-08-20T01:20:59.805Z,23.60
2022-08-20T01:26:11.899Z,25.17
2022-08-20T01:31:20.594Z,27.60
2022-08-20T01:36:30.372Z,28.58
2022-08-20T01:42:00.968Z,26.77
2022-08-20T01:47:16.827Z,27.63
2022-08-20T01:52:29.712Z,27.90
2022-08-20T01:57:36.657Z,26.40
2022-08-20T02:02:41.250Z,27.35
2022-08-20T02:07:46.093Z,28.77
2022-08-20T02:12:53.088Z,29.00
2022-08-20T02:17:58.774Z,25.25
2022-08-20T02:23:05.394Z,23.50
2022-08-20T02:28:19.320Z,24.57
2022-08-20T02:33:24.881Z,24.58
2022-08-20T02:38:29.788Z,20.53
2022-08-20T02:43:36.381Z,20.83
2022-08-20T02:48:40.948Z,22.73
2022-08-20T02:53:45.516Z,23.10
2022-08-20T02:58:51.666Z,21.83
2022-08-20T03:03:59.059Z,23.52
2022-08-20T03:09:06.119Z,21.85
2022-08-20T03:14:12.119Z,22.13
2022-08-20T03:19:17.089Z,20.47
2022-08-20T03:24:21.852Z,21.42
2022-08-20T03:29:27.905Z,18.45
2022-08-20T03:34:33.173Z,17.93
2022-08-20T03:39:37.995Z,18.97
2022-08-20T03:44:44.483Z,21.10
2022-08-20T03:49:49.950Z,19.73
2022-08-20T03:54:54.392Z,19.70
2022-08-20T04:00:00.195Z,20.27
2022-08-20T04:05:05.380Z,18.90
2022-08-20T04:10:14.028Z,19.05
2022-08-20T04:15:23.248Z,19.20
2022-08-20T04:20:28.640Z,21.07
2022-08-20T04:25:35.813Z,20.37
2022-08-20T04:30:43.330Z,18.27
2022-08-20T04:35:52.096Z,21.15
2022-08-20T04:41:01.079Z,19.73
2022-08-20T04:46:10.369Z,20.02
2022-08-20T04:51:15.816Z,20.73
2022-08-20T04:56:23.522Z,18.10
2022-08-20T05:01:30.654Z,14.30
2022-08-20T05:06:35.292Z,13.93
2022-08-20T05:11:39.787Z,17.88
2022-08-20T05:16:45.580Z,18.23
2022-08-20T05:21:52.393Z,20.93
2022-08-20T05:26:56.876Z,23.05
2022-08-20T05:32:03.056Z,23.67
2022-08-20T05:37:07.794Z,24.13
2022-08-20T05:42:12.651Z,27.10
2022-08-20T05:47:19.270Z,26.07
2022-08-20T05:52:26.298Z,25.47
2022-08-20T05:57:30.821Z,23.05
2022-08-20T06:02:54.282Z,23.20
2022-08-20T06:07:58.671Z,19.77
2022-08-20T06:13:13.757Z,23.83
2022-08-20T06:18:28.328Z,20.00
2022-08-20T06:23:50.377Z,19.92
2022-08-20T06:28:59.823Z,18.35
2022-08-20T06:34:06.395Z,19.00
2022-08-20T06:39:10.850Z,14.87
2022-08-20T06:44:15.361Z,16.35
2022-08-20T06:49:21.250Z,19.13
2022-08-20T06:54:28.686Z,19.17
2022-08-20T06:59:33.992Z,16.07
2022-08-20T07:04:39.938Z,12.70
2022-08-20T07:09:44.861Z,12.23
2022-08-20T07:14:49.467Z,9.90
2022-08-20T07:19:55.209Z,8.13
2022-08-20T07:25:00.036Z,6.53
2022-08-20T07:30:25.261Z,3.60
2022-08-20T07:35:31.191Z,2.83
2022-08-20T07:40:37.013Z,2.13
2022-08-20T07:45:41.445Z,2.35
2022-08-20T07:50:55.583Z,2.05
2022-08-20T07:56:00.074Z,1.80
2022-08-20T08:01:05.815Z,1.50
2022-08-20T08:06:11.709Z,1.40
2022-08-20T08:11:19.500Z,0.90
2022-08-20T08:16:24.107Z,1.70
2022-08-20T08:21:31.348Z,1.50
2022-08-20T08:26:35.843Z,1.33
2022-08-20T08:31:42.315Z,1.40
2022-08-20T08:36:48.079Z,1.30
2022-08-20T08:41:57.159Z,1.30
2022-08-20T08:47:18.295Z,1.10
2022-08-20T08:52:31.526Z,0.77
2022-08-20T08:57:37.984Z,0.70
2022-08-20T09:02:55.755Z,0.40
2022-08-20T09:08:06.728Z,0.50
2022-08-20T09:13:11.177Z,0.43
2022-08-20T09:18:15.772Z,0.60
2022-08-20T09:23:21.390Z,0.30
2022-08-20T09:28:26.045Z,0.43
2022-08-20T09:33:36.960Z,0.38
2022-08-20T09:38:42.673Z,0.30
2022-08-20T09:43:47.081Z,0.32
2022-08-20T09:48:53.349Z,0.30
2022-08-20T09:54:55.069Z,0.30
2022-08-20T10:00:06.354Z,0.40
2022-08-20T10:05:17.254Z,1.02
2022-08-20T10:10:29.173Z,0.68
2022-08-20T10:15:34.504Z,2.00
2022-08-20T10:20:41.671Z,2.50
2022-08-20T10:25:47.288Z,2.17
2022-08-20T10:30:55.475Z,2.22
2022-08-20T10:41:50.232Z,0.80
2022-08-20T10:46:57.206Z,2.00
2022-08-20T10:52:02.602Z,1.00
2022-08-20T10:57:17.311Z,1.23
2022-08-20T11:02:32.459Z,0.50
2022-08-20T11:07:49.826Z,0.60
2022-08-20T11:13:13.601Z,0.60
2022-08-20T11:19:21.564Z,0.70
2022-08-20T11:26:30.942Z,0.88
2022-08-20T11:32:08.123Z,0.68
2022-08-20T11:44:46.679Z,0.60
2022-08-20T11:50:26.897Z,0.32
2022-08-20T11:55:43.547Z,0.30
2022-08-20T12:00:50.275Z,0.27
2022-08-20T12:05:58.121Z,0.80
2022-08-20T12:11:04.860Z,0.60
2022-08-20T12:16:09.711Z,0.40
2022-08-20T12:21:19.348Z,0.30
2022-08-20T12:26:24.224Z,0.30
2022-08-20T12:31:29.166Z,0.33
2022-08-20T12:36:35.760Z,0.20
2022-08-20T12:41:40.640Z,0.40
2022-08-20T12:46:51.016Z,0.38
2022-08-20T12:51:58.451Z,0.30
2022-08-20T12:57:57.138Z,0.20
2022-08-20T13:03:11.678Z,0.30
2022-08-20T13:08:19.613Z,0.20
2022-08-20T13:13:24.932Z,0.20
2022-08-20T13:18:30.104Z,0.60
2022-08-20T13:23:36.851Z,0.30
2022-08-20T13:28:49.260Z,0.30
2022-08-20T13:33:58.464Z,0.20
2022-08-20T13:39:09.891Z,0.28
2022-08-20T13:44:14.641Z,0.22
2022-08-20T13:49:19.403Z,0.22
2022-08-20T13:54:29.906Z,0.50
2022-08-20T13:59:56.719Z,0.20
2022-08-20T14:05:10.432Z,0.30
2022-08-20T14:10:24.831Z,0.40
2022-08-20T14:15:36.848Z,0.25
2022-08-20T14:20:43.318Z,0.30
2022-08-20T14:25:54.509Z,0.47
2022-08-20T14:30:59.865Z,0.30
2022-08-20T14:36:05.928Z,0.30
2022-08-20T14:41:20.585Z,0.30
2022-08-20T14:46:25.575Z,0.30
2022-08-20T14:51:32.840Z,0.68
2022-08-20T14:56:39.071Z,0.35
2022-08-20T15:01:44.664Z,0.30
2022-08-20T15:06:50.613Z,0.38
2022-08-20T15:12:01.068Z,0.28
2022-08-20T15:17:06.014Z,0.40
2022-08-20T15:22:10.963Z,0.65
2022-08-20T15:27:22.962Z,0.40
2022-08-20T15:32:28.082Z,0.50
2022-08-20T15:37:32.935Z,0.50
2022-08-20T15:42:40.497Z,0.47
2022-08-20T15:48:00.710Z,0.47
2022-08-20T15:53:12.433Z,0.40
2022-08-20T15:58:33.888Z,0.30
2022-08-20T16:04:45.805Z,0.33
2022-08-20T16:10:26.039Z,0.40
2022-08-20T16:15:49.602Z,0.60
2022-08-20T16:21:04.046Z,0.60
2022-08-20T16:27:26.049Z,0.60
2022-08-20T16:33:07.888Z,0.53
2022-08-20T16:38:34.388Z,0.70
2022-08-20T16:43:54.542Z,0.40
2022-08-20T16:49:25.023Z,0.60
2022-08-20T16:54:33.970Z,0.40
2022-08-20T17:00:06.327Z,0.30
2022-08-20T17:05:12.302Z,0.40
2022-08-20T17:10:22.084Z,0.43
2022-08-20T17:15:36.058Z,0.47
2022-08-20T17:20:46.829Z,0.57
2022-08-20T17:26:00.455Z,0.50
2022-08-20T17:31:05.500Z,0.40
2022-08-20T17:37:40.760Z,0.50
2022-08-20T17:50:09.777Z,0.50
2022-08-20T17:55:21.972Z,0.80
2022-08-20T18:00:30.603Z,0.80
2022-08-20T18:05:45.929Z,0.80
2022-08-20T18:11:21.188Z,0.90
2022-08-20T18:16:55.302Z,0.85
2022-08-20T18:22:34.364Z,0.73
2022-08-20T18:27:51.247Z,0.93
2022-08-20T18:33:24.623Z,1.30
2022-08-20T19:17:00.613Z,2.38
2022-08-20T19:31:14.854Z,1.90
2022-08-20T19:43:22.370Z,1.60
2022-08-20T19:48:47.934Z,1.60
2022-08-20T19:53:52.655Z,1.83
2022-08-20T19:59:03.395Z,1.60
2022-08-20T20:04:20.607Z,1.52
2022-08-20T20:09:29.972Z,1.77
2022-08-20T20:14:39.908Z,1.60
2022-08-20T20:19:53.400Z,1.35
2022-08-20T20:25:21.339Z,1.00
2022-08-20T20:30:31.390Z,1.47
2022-08-20T20:35:38.497Z,2.15
2022-08-20T20:40:52.236Z,2.45
2022-08-20T20:46:07.923Z,2.08
2022-08-20T20:51:25.871Z,2.40
2022-08-20T20:56:35.983Z,2.17
2022-08-20T21:01:50.210Z,2.00
2022-08-20T21:07:00.292Z,1.90
2022-08-20T21:12:07.270Z,1.95
2022-08-20T21:17:24.111Z,1.63
2022-08-20T21:22:30.198Z,2.15
2022-08-20T21:27:36.684Z,1.80
2022-08-20T21:32:41.382Z,1.50
2022-08-20T21:37:47.851Z,2.93
2022-08-20T21:42:52.535Z,2.35
2022-08-20T21:47:58.851Z,1.57
2022-08-20T21:53:12.834Z,2.07
2022-08-20T21:58:18.395Z,2.90
2022-08-20T22:03:26.706Z,2.73
2022-08-20T22:08:33.223Z,2.30
2022-08-20T22:13:38.756Z,1.60
2022-08-20T22:18:44.010Z,1.85
2022-08-20T22:23:51.644Z,2.70
2022-08-20T22:28:58.164Z,2.50
2022-08-20T22:34:03.441Z,3.50
2022-08-20T22:39:10.754Z,3.03
2022-08-20T22:44:15.256Z,3.58
2022-08-20T22:49:25.126Z,3.60
2022-08-20T22:54:32.272Z,3.00
2022-08-20T22:59:45.904Z,3.50
2022-08-20T23:04:54.275Z,3.03
2022-08-20T23:10:00.181Z,2.63
2022-08-20T23:15:12.090Z,2.90
2022-08-20T23:20:19.305Z,3.43
2022-08-20T23:25:26.871Z,2.70
2022-08-20T23:30:34.853Z,3.17
2022-08-20T23:35:42.749Z,2.97
2022-08-20T23:41:17.186Z,2.30
2022-08-20T23:46:43.876Z,2.40
2022-08-20T23:51:48.896Z,2.05
2022-08-20T23:56:56.770Z,2.13
